Main page
METAR-TAF:

METAR-TAF

Airports :

Muskrat Dam Airport

Muskrat Dam, Ontario, Canada

latitude: 53-26-29N, longitude: 091-45-46W, elevation: 278 m

Current weather observation

The report was made 1 hour and 9 minutes ago, at 03:00 UTC
Wind 21 kt from the Northeast with gusts up to 29 kt
Temperature -3°C
Humidity 63%
Pressure 1007 hPa
Visibility: 14.5 km
Broken clouds at a height of 24000 ft

METAR: CZMD 230300Z AUTO 04021G29KT 9SM BKN240 M03/M09 A2973 RMK SLP085

Time: 23:09 (04:09 UTC)

Forecast

The report was made 12 hours and 29 minutes ago, at 15:40 UTC
Forecast valid from 22 at 16 UTC to 22 at 22 UTC
Wind 3 kt from variable directions
Visibility: 10 km
Broken clouds at a height of 24000 ft
Becoming
from 22 at 19 UTC to 22 at 21 UTC
Wind 8 kt from the North/Northeast

TAF: CZMD 221540Z 2216/2222 VRB03KT P6SM BKN240 BECMG 2219/2221 02008KT RMK FCST BASED ON AUTO OBS. NXT FCST BY 231000Z

Weather observations and forecasts of more than 4000 airports (METAR and TAF reports).

The available stations are represented by yellow and red dots on the map.

Hover mouse over dot to see the name of the station.

Then click to see weather observations and forecasts.

To change the map : click on the green buttons with a black cross to zoom in, on the green button with a dash to zoom out, or on the green arrows for adjacent maps.


METAR-TAF: